createdAt,value
2018-12-18T00:01:29.495Z,5.69
2018-12-18T00:06:42.221Z,5.70
2018-12-18T00:11:59.295Z,5.67
2018-12-18T00:17:10.304Z,5.69
2018-12-18T00:22:23.025Z,5.69
2018-12-18T00:27:35.599Z,5.70
2018-12-18T00:32:48.751Z,5.75
2018-12-18T00:38:01.757Z,5.69
2018-12-18T00:43:13.080Z,5.72
2018-12-18T00:48:29.020Z,5.77
2018-12-18T00:53:40.046Z,5.62
2018-12-18T00:58:55.023Z,5.68
2018-12-18T01:04:07.624Z,5.78
2018-12-18T01:09:20.761Z,5.83
2018-12-18T01:14:33.064Z,5.81
2018-12-18T01:19:46.765Z,5.82
2018-12-18T01:24:59.041Z,5.74
2018-12-18T01:30:11.396Z,5.71
2018-12-18T01:32:41.578Z,5.80
2018-12-18T01:37:52.707Z,5.99
2018-12-18T01:43:04.602Z,5.87
2018-12-18T01:48:17.745Z,5.69
2018-12-18T01:53:29.405Z,5.84
2018-12-18T01:58:41.486Z,5.76
2018-12-18T02:03:54.334Z,5.80
2018-12-18T02:09:09.651Z,5.91
2018-12-18T02:14:21.040Z,5.90
2018-12-18T02:19:33.902Z,5.89
2018-12-18T02:24:45.772Z,5.75
2018-12-18T02:29:58.672Z,5.76
2018-12-18T02:35:10.694Z,5.76
2018-12-18T02:40:24.309Z,5.83
2018-12-18T02:45:37.902Z,5.88
2018-12-18T02:50:50.815Z,5.94
2018-12-18T02:56:03.645Z,5.90
2018-12-18T03:01:16.920Z,5.93
2018-12-18T03:06:29.848Z,5.97
2018-12-18T03:11:43.431Z,5.90
2018-12-18T03:16:56.660Z,5.87
2018-12-18T03:22:08.294Z,5.87
2018-12-18T03:27:21.048Z,6.00
2018-12-18T03:32:38.721Z,5.97
2018-12-18T03:37:50.514Z,5.94
2018-12-18T03:43:02.282Z,5.66
2018-12-18T03:48:15.730Z,5.78
2018-12-18T03:53:26.911Z,5.83
2018-12-18T03:58:39.479Z,5.72
2018-12-18T04:03:52.085Z,5.73
2018-12-18T04:09:06.876Z,5.68
2018-12-18T04:14:54.050Z,5.68
2018-12-18T04:20:07.360Z,5.64
2018-12-18T04:25:18.684Z,5.82
2018-12-18T04:30:32.074Z,5.77
2018-12-18T04:35:43.989Z,5.70
2018-12-18T04:40:55.502Z,5.75
2018-12-18T04:46:09.032Z,5.78
2018-12-18T04:51:19.774Z,5.81
2018-12-18T04:53:49.639Z,5.86
2018-12-18T04:59:01.499Z,5.74
2018-12-18T05:04:13.926Z,5.87
2018-12-18T05:09:27.495Z,5.75
2018-12-18T05:16:19.269Z,5.66
2018-12-18T05:21:30.303Z,5.69
2018-12-18T05:26:42.791Z,5.70
2018-12-18T05:31:53.686Z,5.70
2018-12-18T05:37:06.674Z,5.69
2018-12-18T05:42:18.239Z,5.77
2018-12-18T05:47:31.339Z,5.84
2018-12-18T05:52:43.862Z,5.81
2018-12-18T05:57:56.828Z,5.89
2018-12-18T06:03:08.044Z,6.03
2018-12-18T06:08:20.687Z,6.06
2018-12-18T06:13:32.366Z,6.20
2018-12-18T06:18:45.037Z,6.41
2018-12-18T06:23:56.787Z,6.35
2018-12-18T06:26:28.377Z,6.16
2018-12-18T06:31:39.746Z,6.26
2018-12-18T06:36:52.704Z,6.11
2018-12-18T06:42:04.730Z,6.17
2018-12-18T06:47:17.643Z,6.13
2018-12-18T06:52:29.671Z,6.12
2018-12-18T06:57:42.767Z,6.14
2018-12-18T07:02:56.670Z,6.23
2018-12-18T07:08:11.371Z,6.32
2018-12-18T07:13:23.458Z,6.18
2018-12-18T07:18:36.952Z,6.26
2018-12-18T07:23:48.670Z,6.24
2018-12-18T07:29:03.045Z,6.12
2018-12-18T07:34:14.802Z,6.21
2018-12-18T07:39:41.769Z,6.20
2018-12-18T07:44:53.777Z,6.31
2018-12-18T07:50:08.053Z,6.12
2018-12-18T07:55:20.038Z,6.33
2018-12-18T08:00:32.692Z,6.48
2018-12-18T08:05:44.692Z,6.27
2018-12-18T08:10:56.742Z,6.36
2018-12-18T08:16:09.765Z,6.35
2018-12-18T08:21:21.682Z,6.49
2018-12-18T08:26:34.655Z,6.71
2018-12-18T08:31:46.407Z,6.89
2018-12-18T08:37:00.041Z,6.79
2018-12-18T08:42:11.726Z,6.87
2018-12-18T08:47:24.660Z,7.03
2018-12-18T08:52:36.406Z,6.90
2018-12-18T08:57:50.917Z,6.77
2018-12-18T09:03:03.763Z,6.85
2018-12-18T09:08:16.933Z,6.78
2018-12-18T09:13:28.756Z,6.80
2018-12-18T09:18:47.766Z,7.02
2018-12-18T09:24:00.241Z,7.07
2018-12-18T09:29:13.831Z,7.16
2018-12-18T09:34:26.482Z,7.32
2018-12-18T09:39:42.717Z,7.50
2018-12-18T09:45:06.856Z,7.66
2018-12-18T09:50:20.055Z,7.53
2018-12-18T09:55:32.845Z,7.68
2018-12-18T10:00:46.766Z,7.38
2018-12-18T10:05:59.679Z,7.43
2018-12-18T10:11:11.390Z,7.31
2018-12-18T10:16:24.664Z,7.31
2018-12-18T10:21:36.687Z,7.49
2018-12-18T10:26:49.835Z,7.38
2018-12-18T10:32:01.026Z,7.25
2018-12-18T10:34:33.404Z,7.39
2018-12-18T10:39:46.381Z,7.01
2018-12-18T10:44:58.684Z,7.17
2018-12-18T10:50:12.061Z,7.05
2018-12-18T10:55:24.465Z,7.01
2018-12-18T11:00:42.720Z,7.10
2018-12-18T11:05:53.755Z,7.10
2018-12-18T11:11:06.549Z,7.16
2018-12-18T11:16:19.662Z,7.17
2018-12-18T11:21:31.761Z,7.40
2018-12-18T11:26:44.703Z,7.39
2018-12-18T11:31:57.376Z,7.56
2018-12-18T11:37:10.573Z,7.59
2018-12-18T11:42:22.028Z,7.71
2018-12-18T11:47:34.761Z,7.59
2018-12-18T11:52:46.648Z,7.77
2018-12-18T11:57:59.252Z,7.97
2018-12-18T12:03:10.887Z,8.41
2018-12-18T12:08:23.779Z,9.00
2018-12-18T12:13:35.390Z,9.41
2018-12-18T12:18:48.908Z,9.92
2018-12-18T12:23:58.971Z,9.90
2018-12-18T12:26:35.362Z,9.98
2018-12-18T12:31:48.030Z,11.23
2018-12-18T12:37:01.603Z,14.42
2018-12-18T12:42:12.778Z,14.09
2018-12-18T12:47:25.636Z,14.93
2018-12-18T12:52:37.388Z,17.88
2018-12-18T12:57:49.375Z,18.65
2018-12-18T13:03:01.379Z,19.67
2018-12-18T13:08:14.445Z,18.39
2018-12-18T13:13:25.716Z,17.11
2018-12-18T13:18:38.799Z,15.43
2018-12-18T13:23:54.783Z,13.50
2018-12-18T13:29:08.714Z,12.08
2018-12-18T13:34:20.784Z,11.52
2018-12-18T13:39:33.807Z,10.73
2018-12-18T13:44:45.739Z,10.17
2018-12-18T13:49:58.743Z,9.62
2018-12-18T13:55:10.625Z,9.52
2018-12-18T14:00:23.646Z,9.81
2018-12-18T14:05:35.370Z,10.16
2018-12-18T14:10:49.364Z,10.88
2018-12-18T14:16:02.038Z,10.84
2018-12-18T14:21:13.835Z,10.43
2018-12-18T14:26:26.887Z,9.42
2018-12-18T14:31:39.635Z,8.91
2018-12-18T14:36:56.278Z,8.59
2018-12-18T14:42:05.752Z,8.22
2018-12-18T14:44:35.904Z,8.18
2018-12-18T14:49:48.675Z,7.95
2018-12-18T14:55:00.682Z,7.74
2018-12-18T15:00:13.707Z,7.62
2018-12-18T15:05:25.916Z,7.44
2018-12-18T15:10:38.631Z,7.22
2018-12-18T15:15:50.642Z,6.99
2018-12-18T15:32:39.632Z,6.43
2018-12-18T15:35:10.446Z,6.41
2018-12-18T15:40:22.745Z,6.30
2018-12-18T15:45:34.538Z,6.15
2018-12-18T15:48:04.709Z,6.09
2018-12-18T15:53:16.496Z,6.07
2018-12-18T15:58:29.902Z,5.87
2018-12-18T16:03:41.770Z,5.75
2018-12-18T16:08:57.758Z,5.64
2018-12-18T16:14:10.239Z,5.62
2018-12-18T16:19:24.327Z,5.58
2018-12-18T16:24:36.703Z,5.53
2018-12-18T16:27:06.747Z,5.41
2018-12-18T16:32:19.036Z,5.47
2018-12-18T16:37:32.710Z,5.41
2018-12-18T16:42:44.763Z,5.47
2018-12-18T16:47:57.658Z,5.50
2018-12-18T16:53:08.397Z,5.28
2018-12-18T16:58:21.466Z,5.15
2018-12-18T17:03:33.655Z,5.06
2018-12-18T17:08:46.708Z,5.00
2018-12-18T17:13:59.040Z,4.94
2018-12-18T17:19:12.984Z,4.76
2018-12-18T17:24:24.925Z,4.80
2018-12-18T17:29:37.339Z,4.79
2018-12-18T17:34:49.284Z,4.83
2018-12-18T17:40:01.556Z,4.79
2018-12-18T17:45:13.787Z,4.81
2018-12-18T17:50:29.022Z,4.77
2018-12-18T17:55:42.658Z,4.71
2018-12-18T18:00:55.373Z,4.76
2018-12-18T18:06:08.663Z,4.68
2018-12-18T18:11:20.457Z,4.68
2018-12-18T18:16:33.652Z,4.64
2018-12-18T18:21:46.679Z,4.47
2018-12-18T18:27:03.916Z,4.44
2018-12-18T18:32:16.041Z,4.31
2018-12-18T18:37:29.672Z,4.39
2018-12-18T18:42:42.913Z,4.41
2018-12-18T18:47:56.792Z,4.45
2018-12-18T18:53:09.676Z,4.45
2018-12-18T18:58:22.790Z,4.40
2018-12-18T19:03:33.326Z,4.26
2018-12-18T19:08:45.672Z,4.30
2018-12-18T19:13:57.647Z,4.28
2018-12-18T19:19:10.363Z,4.33
2018-12-18T19:24:22.823Z,4.37
2018-12-18T19:29:36.676Z,4.38
2018-12-18T19:34:49.736Z,4.33
2018-12-18T19:40:02.812Z,4.17
2018-12-18T19:45:14.732Z,4.20
2018-12-18T19:50:27.807Z,4.31
2018-12-18T19:55:39.777Z,4.25
2018-12-18T19:58:09.644Z,4.22
2018-12-18T20:03:21.814Z,4.19
2018-12-18T20:08:36.297Z,4.08
2018-12-18T20:13:48.756Z,4.13
2018-12-18T20:19:01.768Z,4.12
2018-12-18T20:24:12.676Z,4.25
2018-12-18T20:29:26.492Z,4.22
2018-12-18T20:34:38.055Z,4.22
2018-12-18T20:39:51.195Z,4.13
2018-12-18T20:45:03.945Z,4.19
2018-12-18T20:50:17.915Z,4.21
2018-12-18T20:55:30.039Z,4.27
2018-12-18T21:00:46.026Z,4.30
2018-12-18T21:05:59.767Z,4.27
2018-12-18T21:11:11.746Z,4.25
2018-12-18T21:16:25.541Z,4.35
2018-12-18T21:21:38.370Z,4.41
2018-12-18T21:26:52.553Z,4.53
2018-12-18T21:32:04.923Z,4.55
2018-12-18T21:37:17.648Z,4.57
2018-12-18T21:42:31.700Z,4.58
2018-12-18T21:47:46.745Z,4.64
2018-12-18T21:52:59.242Z,4.58
2018-12-18T21:58:13.023Z,4.46
2018-12-18T22:03:25.037Z,4.39
2018-12-18T22:08:38.055Z,4.53
2018-12-18T22:13:49.467Z,4.50
2018-12-18T22:16:19.544Z,4.45
2018-12-18T22:21:31.424Z,4.43
2018-12-18T22:27:53.538Z,4.40
2018-12-18T22:33:05.368Z,4.31
2018-12-18T22:38:18.624Z,4.32
2018-12-18T22:43:31.055Z,4.30
2018-12-18T22:48:43.681Z,4.35
2018-12-18T22:53:54.658Z,4.33
2018-12-18T23:01:49.903Z,4.17
2018-12-18T23:07:03.824Z,4.12
2018-12-18T23:12:15.574Z,4.16
2018-12-18T23:20:09.666Z,4.12
2018-12-18T23:25:22.322Z,4.12
2018-12-18T23:30:33.918Z,3.98
2018-12-18T23:35:44.922Z,3.88
2018-12-18T23:40:56.014Z,3.98
2018-12-18T23:46:08.755Z,3.92
2018-12-18T23:51:21.392Z,3.90
2018-12-18T23:56:17.917Z,3.89
